sensor_id;sensor_type;location;lat;lon;timestamp;pressure;altitude;pressure_sealevel;temperature;humidity
6096;BME280;25081;42.698;23.298;2023-03-13T00:01:00;95531.11;;;1.24;60.65
6096;BME280;25081;42.698;23.298;2023-03-13T00:03:10;95524.42;;;1.26;60.78
6096;BME280;25081;42.698;23.298;2023-03-13T00:05:21;95523.56;;;1.25;60.85
6096;BME280;25081;42.698;23.298;2023-03-13T00:07:31;95527.99;;;1.25;60.93
6096;BME280;25081;42.698;23.298;2023-03-13T00:09:42;95526.51;;;1.22;60.45
6096;BME280;25081;42.698;23.298;2023-03-13T00:11:52;95518.79;;;1.21;60.90
6096;BME280;25081;42.698;23.298;2023-03-13T00:14:03;95527.56;;;1.33;60.74
6096;BME280;25081;42.698;23.298;2023-03-13T00:16:14;95534.60;;;1.29;60.29
6096;BME280;25081;42.698;23.298;2023-03-13T00:18:24;95529.63;;;1.22;60.70
6096;BME280;25081;42.698;23.298;2023-03-13T00:20:34;95532.30;;;1.26;60.66
6096;BME280;25081;42.698;23.298;2023-03-13T00:22:45;95536.08;;;1.27;60.67
6096;BME280;25081;42.698;23.298;2023-03-13T00:24:55;95539.97;;;1.23;61.33
6096;BME280;25081;42.698;23.298;2023-03-13T00:27:06;95541.93;;;1.21;61.12
6096;BME280;25081;42.698;23.298;2023-03-13T00:29:16;95541.76;;;1.19;61.16
6096;BME280;25081;42.698;23.298;2023-03-13T00:31:28;95546.84;;;1.16;60.89
6096;BME280;25081;42.698;23.298;2023-03-13T00:33:38;95547.12;;;1.13;61.13
6096;BME280;25081;42.698;23.298;2023-03-13T00:35:48;95541.53;;;1.12;61.20
6096;BME280;25081;42.698;23.298;2023-03-13T00:37:58;95534.16;;;1.15;60.99
6096;BME280;25081;42.698;23.298;2023-03-13T00:40:11;95537.76;;;1.10;61.29
6096;BME280;25081;42.698;23.298;2023-03-13T00:42:22;95542.78;;;1.04;61.28
6096;BME280;25081;42.698;23.298;2023-03-13T00:44:33;95549.02;;;1.03;61.33
6096;BME280;25081;42.698;23.298;2023-03-13T00:46:44;95541.19;;;1.07;61.13
6096;BME280;25081;42.698;23.298;2023-03-13T00:48:54;95545.41;;;1.04;61.30
6096;BME280;25081;42.698;23.298;2023-03-13T00:51:05;95544.39;;;0.97;61.66
6096;BME280;25081;42.698;23.298;2023-03-13T00:53:16;95539.59;;;0.92;61.90
6096;BME280;25081;42.698;23.298;2023-03-13T00:55:26;95540.25;;;0.94;61.97
6096;BME280;25081;42.698;23.298;2023-03-13T00:57:37;95539.59;;;0.92;61.88
6096;BME280;25081;42.698;23.298;2023-03-13T00:59:47;95533.01;;;0.88;61.52
6096;BME280;25081;42.698;23.298;2023-03-13T01:01:58;95535.80;;;0.91;61.57
6096;BME280;25081;42.698;23.298;2023-03-13T01:04:09;95539.23;;;0.87;61.40
6096;BME280;25081;42.698;23.298;2023-03-13T01:06:20;95531.16;;;0.84;61.41
6096;BME280;25081;42.698;23.298;2023-03-13T01:08:29;95532.45;;;0.80;61.38
6096;BME280;25081;42.698;23.298;2023-03-13T01:10:40;95538.53;;;0.85;61.71
6096;BME280;25081;42.698;23.298;2023-03-13T01:12:50;95537.88;;;0.83;61.79
6096;BME280;25081;42.698;23.298;2023-03-13T01:15:01;95531.20;;;0.89;61.25
6096;BME280;25081;42.698;23.298;2023-03-13T01:17:11;95531.38;;;0.91;61.13
6096;BME280;25081;42.698;23.298;2023-03-13T01:19:22;95536.65;;;0.95;61.40
6096;BME280;25081;42.698;23.298;2023-03-13T01:21:32;95525.95;;;0.89;61.07
6096;BME280;25081;42.698;23.298;2023-03-13T01:23:43;95530.38;;;0.88;61.33
6096;BME280;25081;42.698;23.298;2023-03-13T01:25:54;95535.98;;;0.93;61.25
6096;BME280;25081;42.698;23.298;2023-03-13T01:28:04;95533.29;;;0.85;61.63
6096;BME280;25081;42.698;23.298;2023-03-13T01:30:15;95539.69;;;0.86;61.41
6096;BME280;25081;42.698;23.298;2023-03-13T01:32:26;95539.90;;;0.89;61.36
6096;BME280;25081;42.698;23.298;2023-03-13T01:34:36;95541.39;;;0.92;61.59
6096;BME280;25081;42.698;23.298;2023-03-13T01:36:47;95543.02;;;0.89;61.69
6096;BME280;25081;42.698;23.298;2023-03-13T01:38:58;95544.92;;;0.82;61.95
6096;BME280;25081;42.698;23.298;2023-03-13T01:41:10;95546.49;;;0.75;61.80
6096;BME280;25081;42.698;23.298;2023-03-13T01:43:21;95547.14;;;0.73;62.06
6096;BME280;25081;42.698;23.298;2023-03-13T01:45:59;95548.50;;;0.77;61.53
6096;BME280;25081;42.698;23.298;2023-03-13T01:48:09;95548.42;;;0.87;61.48
6096;BME280;25081;42.698;23.298;2023-03-13T01:50:19;95550.68;;;0.86;61.60
6096;BME280;25081;42.698;23.298;2023-03-13T01:52:30;95558.11;;;0.91;61.27
6096;BME280;25081;42.698;23.298;2023-03-13T01:54:41;95556.47;;;0.90;61.16
6096;BME280;25081;42.698;23.298;2023-03-13T01:56:52;95554.35;;;0.93;61.46
6096;BME280;25081;42.698;23.298;2023-03-13T01:59:02;95558.76;;;0.89;61.56
6096;BME280;25081;42.698;23.298;2023-03-13T02:01:12;95554.70;;;0.76;61.69
6096;BME280;25081;42.698;23.298;2023-03-13T02:03:22;95553.70;;;0.73;62.55
6096;BME280;25081;42.698;23.298;2023-03-13T02:05:33;95556.50;;;0.76;62.34
6096;BME280;25081;42.698;23.298;2023-03-13T02:07:44;95557.20;;;0.78;63.27
6096;BME280;25081;42.698;23.298;2023-03-13T02:09:55;95553.95;;;0.66;62.77
6096;BME280;25081;42.698;23.298;2023-03-13T02:12:07;95545.98;;;0.72;62.79
6096;BME280;25081;42.698;23.298;2023-03-13T02:14:19;95551.56;;;0.73;62.12
6096;BME280;25081;42.698;23.298;2023-03-13T02:16:28;95558.43;;;0.70;64.05
6096;BME280;25081;42.698;23.298;2023-03-13T02:18:39;95563.98;;;0.49;64.59
6096;BME280;25081;42.698;23.298;2023-03-13T02:20:49;95562.94;;;0.46;64.97
6096;BME280;25081;42.698;23.298;2023-03-13T02:23:01;95565.60;;;0.32;67.26
6096;BME280;25081;42.698;23.298;2023-03-13T02:25:11;95573.16;;;0.35;66.37
6096;BME280;25081;42.698;23.298;2023-03-13T02:27:21;95587.00;;;0.27;65.99
6096;BME280;25081;42.698;23.298;2023-03-13T02:29:32;95579.11;;;0.23;66.64
6096;BME280;25081;42.698;23.298;2023-03-13T02:31:42;95577.83;;;0.27;66.73
6096;BME280;25081;42.698;23.298;2023-03-13T02:33:53;95586.02;;;0.28;66.18
6096;BME280;25081;42.698;23.298;2023-03-13T02:36:05;95592.00;;;0.35;65.42
6096;BME280;25081;42.698;23.298;2023-03-13T02:38:16;95595.84;;;0.40;65.87
6096;BME280;25081;42.698;23.298;2023-03-13T02:40:26;95606.61;;;0.37;65.65
6096;BME280;25081;42.698;23.298;2023-03-13T02:42:37;95608.25;;;0.38;65.64
6096;BME280;25081;42.698;23.298;2023-03-13T02:44:47;95606.23;;;0.32;65.03
6096;BME280;25081;42.698;23.298;2023-03-13T02:46:57;95617.30;;;0.26;64.94
6096;BME280;25081;42.698;23.298;2023-03-13T02:49:18;95622.39;;;0.27;65.08
6096;BME280;25081;42.698;23.298;2023-03-13T02:51:28;95629.28;;;0.28;65.23
6096;BME280;25081;42.698;23.298;2023-03-13T02:53:37;95626.20;;;0.29;64.91
6096;BME280;25081;42.698;23.298;2023-03-13T02:55:48;95624.58;;;0.18;66.36
6096;BME280;25081;42.698;23.298;2023-03-13T02:57:58;95627.31;;;0.13;66.12
6096;BME280;25081;42.698;23.298;2023-03-13T03:00:14;95632.94;;;0.04;66.36
6096;BME280;25081;42.698;23.298;2023-03-13T03:02:24;95630.55;;;-0.03;67.03
6096;BME280;25081;42.698;23.298;2023-03-13T03:04:35;95630.06;;;-0.03;67.11
6096;BME280;25081;42.698;23.298;2023-03-13T03:06:45;95632.94;;;0.04;67.17
6096;BME280;25081;42.698;23.298;2023-03-13T03:08:56;95623.66;;;-0.04;66.94
6096;BME280;25081;42.698;23.298;2023-03-13T03:11:07;95629.45;;;-0.10;66.95
6096;BME280;25081;42.698;23.298;2023-03-13T03:13:17;95624.18;;;-0.14;67.05
6096;BME280;25081;42.698;23.298;2023-03-13T03:15:27;95632.00;;;-0.18;68.07
6096;BME280;25081;42.698;23.298;2023-03-13T03:17:38;95643.69;;;-0.13;67.51
6096;BME280;25081;42.698;23.298;2023-03-13T03:19:49;95648.09;;;-0.13;67.42
6096;BME280;25081;42.698;23.298;2023-03-13T03:21:59;95652.88;;;-0.22;67.70
6096;BME280;25081;42.698;23.298;2023-03-13T03:24:10;95658.30;;;-0.34;67.91
6096;BME280;25081;42.698;23.298;2023-03-13T03:26:20;95663.68;;;-0.35;68.30
6096;BME280;25081;42.698;23.298;2023-03-13T03:28:31;95666.15;;;-0.34;68.42
6096;BME280;25081;42.698;23.298;2023-03-13T03:30:41;95666.78;;;-0.36;68.60
6096;BME280;25081;42.698;23.298;2023-03-13T03:32:52;95668.79;;;-0.43;69.14
6096;BME280;25081;42.698;23.298;2023-03-13T03:35:03;95656.81;;;-0.46;69.20
6096;BME280;25081;42.698;23.298;2023-03-13T03:37:13;95663.30;;;-0.60;69.78
6096;BME280;25081;42.698;23.298;2023-03-13T03:39:24;95671.42;;;-0.53;70.03
6096;BME280;25081;42.698;23.298;2023-03-13T03:41:34;95669.09;;;-0.56;69.65
6096;BME280;25081;42.698;23.298;2023-03-13T03:43:45;95678.26;;;-0.56;69.50
6096;BME280;25081;42.698;23.298;2023-03-13T03:45:55;95683.16;;;-0.57;69.79
6096;BME280;25081;42.698;23.298;2023-03-13T03:48:06;95700.72;;;-0.63;69.92
6096;BME280;25081;42.698;23.298;2023-03-13T03:50:17;95702.42;;;-0.58;69.80
6096;BME280;25081;42.698;23.298;2023-03-13T03:52:27;95703.95;;;-0.55;70.06
6096;BME280;25081;42.698;23.298;2023-03-13T03:54:38;95697.47;;;-0.61;70.69
6096;BME280;25081;42.698;23.298;2023-03-13T03:56:49;95699.47;;;-0.69;70.53
6096;BME280;25081;42.698;23.298;2023-03-13T03:58:59;95697.96;;;-0.71;70.98
6096;BME280;25081;42.698;23.298;2023-03-13T04:01:10;95704.94;;;-0.76;72.29
6096;BME280;25081;42.698;23.298;2023-03-13T04:03:20;95704.65;;;-0.82;71.60
6096;BME280;25081;42.698;23.298;2023-03-13T04:05:31;95707.32;;;-0.78;71.35
6096;BME280;25081;42.698;23.298;2023-03-13T04:07:41;95710.66;;;-0.76;71.03
6096;BME280;25081;42.698;23.298;2023-03-13T04:09:52;95715.41;;;-0.76;70.88
6096;BME280;25081;42.698;23.298;2023-03-13T04:12:02;95721.47;;;-0.75;70.57
6096;BME280;25081;42.698;23.298;2023-03-13T04:14:13;95726.36;;;-0.76;71.06
6096;BME280;25081;42.698;23.298;2023-03-13T04:16:24;95726.08;;;-0.73;70.58
6096;BME280;25081;42.698;23.298;2023-03-13T04:18:34;95728.89;;;-0.71;70.36
6096;BME280;25081;42.698;23.298;2023-03-13T04:20:45;95737.37;;;-0.73;71.02
6096;BME280;25081;42.698;23.298;2023-03-13T04:22:55;95737.70;;;-0.72;70.46
6096;BME280;25081;42.698;23.298;2023-03-13T04:25:08;95734.55;;;-0.75;70.57
6096;BME280;25081;42.698;23.298;2023-03-13T04:27:18;95727.09;;;-0.80;71.58
6096;BME280;25081;42.698;23.298;2023-03-13T04:29:29;95737.52;;;-0.74;71.36
6096;BME280;25081;42.698;23.298;2023-03-13T04:31:39;95742.46;;;-0.71;70.58
6096;BME280;25081;42.698;23.298;2023-03-13T04:33:50;95743.62;;;-0.70;70.83
6096;BME280;25081;42.698;23.298;2023-03-13T04:36:00;95752.45;;;-0.71;70.89
6096;BME280;25081;42.698;23.298;2023-03-13T04:38:10;95755.20;;;-0.72;70.23
6096;BME280;25081;42.698;23.298;2023-03-13T04:40:21;95779.44;;;-0.80;71.24
6096;BME280;25081;42.698;23.298;2023-03-13T04:42:31;95768.56;;;-0.85;70.53
6096;BME280;25081;42.698;23.298;2023-03-13T04:44:42;95775.94;;;-0.84;70.67
6096;BME280;25081;42.698;23.298;2023-03-13T04:46:52;95773.66;;;-0.83;70.69
6096;BME280;25081;42.698;23.298;2023-03-13T04:49:03;95774.34;;;-0.81;70.68
6096;BME280;25081;42.698;23.298;2023-03-13T04:51:14;95777.98;;;-0.78;70.64
6096;BME280;25081;42.698;23.298;2023-03-13T04:53:24;95779.80;;;-0.69;70.81
6096;BME280;25081;42.698;23.298;2023-03-13T04:55:35;95778.22;;;-0.76;71.04
6096;BME280;25081;42.698;23.298;2023-03-13T04:57:45;95774.30;;;-0.76;71.11
6096;BME280;25081;42.698;23.298;2023-03-13T04:59:55;95777.52;;;-0.68;71.03
6096;BME280;25081;42.698;23.298;2023-03-13T05:02:07;95782.90;;;-0.60;71.31
6096;BME280;25081;42.698;23.298;2023-03-13T05:04:17;95786.63;;;-0.63;70.70
6096;BME280;25081;42.698;23.298;2023-03-13T05:06:27;95784.63;;;-0.65;71.02
6096;BME280;25081;42.698;23.298;2023-03-13T05:08:37;95778.44;;;-0.64;70.56
6096;BME280;25081;42.698;23.298;2023-03-13T05:10:48;95775.88;;;-0.60;70.59
6096;BME280;25081;42.698;23.298;2023-03-13T05:12:58;95780.57;;;-0.53;70.07
6096;BME280;25081;42.698;23.298;2023-03-13T05:15:11;95787.95;;;-0.43;69.83
6096;BME280;25081;42.698;23.298;2023-03-13T05:17:21;95791.05;;;-0.44;70.51
6096;BME280;25081;42.698;23.298;2023-03-13T05:19:31;95791.33;;;-0.37;69.95
6096;BME280;25081;42.698;23.298;2023-03-13T05:21:42;95801.81;;;0.15;70.36
6096;BME280;25081;42.698;23.298;2023-03-13T05:23:52;95793.90;;;1.58;67.20
6096;BME280;25081;42.698;23.298;2023-03-13T05:26:03;95795.73;;;2.75;60.18
6096;BME280;25081;42.698;23.298;2023-03-13T05:28:14;95796.69;;;3.00;58.83
6096;BME280;25081;42.698;23.298;2023-03-13T05:30:25;95802.21;;;2.59;59.76
6096;BME280;25081;42.698;23.298;2023-03-13T05:32:35;95803.03;;;2.08;60.64
6096;BME280;25081;42.698;23.298;2023-03-13T05:34:45;95804.32;;;1.50;61.82
6096;BME280;25081;42.698;23.298;2023-03-13T05:36:56;95808.80;;;0.81;63.94
6096;BME280;25081;42.698;23.298;2023-03-13T05:39:06;95803.95;;;0.49;65.92
6096;BME280;25081;42.698;23.298;2023-03-13T05:41:17;95813.96;;;0.49;67.06
6096;BME280;25081;42.698;23.298;2023-03-13T05:43:27;95815.31;;;0.53;66.62
6096;BME280;25081;42.698;23.298;2023-03-13T05:45:38;95813.52;;;0.54;65.18
6096;BME280;25081;42.698;23.298;2023-03-13T05:47:48;95809.23;;;0.39;65.73
6096;BME280;25081;42.698;23.298;2023-03-13T05:49:59;95812.20;;;0.54;66.31
6096;BME280;25081;42.698;23.298;2023-03-13T05:52:10;95825.84;;;0.57;66.44
6096;BME280;25081;42.698;23.298;2023-03-13T05:54:21;95826.16;;;0.78;66.20
6096;BME280;25081;42.698;23.298;2023-03-13T05:56:31;95824.20;;;0.80;65.17
6096;BME280;25081;42.698;23.298;2023-03-13T05:58:42;95827.20;;;0.71;65.01
6096;BME280;25081;42.698;23.298;2023-03-13T06:00:52;95833.08;;;0.69;65.33
6096;BME280;25081;42.698;23.298;2023-03-13T06:03:03;95830.64;;;0.58;66.45
6096;BME280;25081;42.698;23.298;2023-03-13T06:05:13;95836.61;;;0.64;65.02
6096;BME280;25081;42.698;23.298;2023-03-13T06:07:24;95842.37;;;0.54;65.31
6096;BME280;25081;42.698;23.298;2023-03-13T06:09:34;95839.05;;;0.62;65.10
6096;BME280;25081;42.698;23.298;2023-03-13T06:11:45;95839.34;;;0.72;66.04
6096;BME280;25081;42.698;23.298;2023-03-13T06:13:55;95838.90;;;0.77;64.95
6096;BME280;25081;42.698;23.298;2023-03-13T06:16:07;95831.89;;;0.77;64.28
6096;BME280;25081;42.698;23.298;2023-03-13T06:18:18;95835.97;;;0.90;64.18
6096;BME280;25081;42.698;23.298;2023-03-13T06:20:28;95834.17;;;0.90;63.62
6096;BME280;25081;42.698;23.298;2023-03-13T06:22:39;95843.09;;;0.83;65.21
6096;BME280;25081;42.698;23.298;2023-03-13T06:24:49;95840.81;;;0.84;63.93
6096;BME280;25081;42.698;23.298;2023-03-13T06:27:00;95831.40;;;0.92;63.12
6096;BME280;25081;42.698;23.298;2023-03-13T06:29:10;95844.63;;;1.00;63.67
6096;BME280;25081;42.698;23.298;2023-03-13T06:31:21;95849.58;;;1.03;63.07
6096;BME280;25081;42.698;23.298;2023-03-13T06:33:31;95843.95;;;1.11;62.76
6096;BME280;25081;42.698;23.298;2023-03-13T06:35:42;95837.72;;;1.12;62.60
6096;BME280;25081;42.698;23.298;2023-03-13T06:37:52;95825.97;;;1.17;63.74
6096;BME280;25081;42.698;23.298;2023-03-13T06:40:04;95819.29;;;1.22;62.71
6096;BME280;25081;42.698;23.298;2023-03-13T06:42:15;95818.98;;;1.39;61.60
6096;BME280;25081;42.698;23.298;2023-03-13T06:44:26;95823.66;;;1.45;61.47
6096;BME280;25081;42.698;23.298;2023-03-13T06:46:36;95830.50;;;1.56;61.21
6096;BME280;25081;42.698;23.298;2023-03-13T06:48:46;95832.48;;;1.58;61.00
6096;BME280;25081;42.698;23.298;2023-03-13T06:50:57;95829.70;;;1.59;60.14
6096;BME280;25081;42.698;23.298;2023-03-13T06:53:08;95836.31;;;1.46;60.15
6096;BME280;25081;42.698;23.298;2023-03-13T06:55:18;95836.61;;;1.60;61.28
6096;BME280;25081;42.698;23.298;2023-03-13T06:57:29;95832.98;;;1.75;60.69
6096;BME280;25081;42.698;23.298;2023-03-13T06:59:39;95826.03;;;1.88;60.39
6096;BME280;25081;42.698;23.298;2023-03-13T07:01:50;95825.11;;;1.75;59.74
6096;BME280;25081;42.698;23.298;2023-03-13T07:04:00;95821.98;;;1.76;60.07
6096;BME280;25081;42.698;23.298;2023-03-13T07:06:11;95819.64;;;1.90;60.67
6096;BME280;25081;42.698;23.298;2023-03-13T07:08:21;95820.39;;;1.83;59.26
6096;BME280;25081;42.698;23.298;2023-03-13T07:10:32;95818.70;;;2.39;59.15
6096;BME280;25081;42.698;23.298;2023-03-13T07:12:43;95811.02;;;4.62;54.61
6096;BME280;25081;42.698;23.298;2023-03-13T07:14:53;95806.06;;;6.87;47.58
6096;BME280;25081;42.698;23.298;2023-03-13T07:17:04;95805.46;;;9.00;44.96
6096;BME280;25081;42.698;23.298;2023-03-13T07:19:14;95801.43;;;10.20;41.11
6096;BME280;25081;42.698;23.298;2023-03-13T07:21:25;95787.64;;;10.86;37.40
6096;BME280;25081;42.698;23.298;2023-03-13T07:23:35;95792.09;;;11.19;36.35
6096;BME280;25081;42.698;23.298;2023-03-13T07:25:52;95785.41;;;11.90;36.16
6096;BME280;25081;42.698;23.298;2023-03-13T07:28:02;95781.30;;;13.35;34.37
6096;BME280;25081;42.698;23.298;2023-03-13T07:30:14;95785.07;;;13.91;31.98
6096;BME280;25081;42.698;23.298;2023-03-13T07:32:25;95778.73;;;14.67;31.39
6096;BME280;25081;42.698;23.298;2023-03-13T07:34:35;95774.72;;;13.86;30.15
6096;BME280;25081;42.698;23.298;2023-03-13T07:36:46;95786.87;;;12.02;34.86
6096;BME280;25081;42.698;23.298;2023-03-13T07:38:56;95785.74;;;13.78;31.60
6096;BME280;25081;42.698;23.298;2023-03-13T07:41:07;95778.67;;;14.64;29.14
6096;BME280;25081;42.698;23.298;2023-03-13T07:43:17;95779.58;;;13.50;30.59
6096;BME280;25081;42.698;23.298;2023-03-13T07:45:28;95782.91;;;14.95;29.38
6096;BME280;25081;42.698;23.298;2023-03-13T07:47:38;95778.62;;;16.07;28.11
6096;BME280;25081;42.698;23.298;2023-03-13T07:49:49;95762.99;;;16.21;27.08
6096;BME280;25081;42.698;23.298;2023-03-13T07:52:00;95762.99;;;16.21;27.08
6096;BME280;25081;42.698;23.298;2023-03-13T07:54:10;95771.50;;;16.01;26.32
6096;BME280;25081;42.698;23.298;2023-03-13T07:56:21;95771.50;;;16.01;26.32
6096;BME280;25081;42.698;23.298;2023-03-13T07:58:32;95781.56;;;11.95;32.32
6096;BME280;25081;42.698;23.298;2023-03-13T08:00:42;95781.83;;;13.71;30.06
6096;BME280;25081;42.698;23.298;2023-03-13T08:02:52;95776.63;;;12.71;30.89
6096;BME280;25081;42.698;23.298;2023-03-13T08:05:03;95771.47;;;11.82;32.74
6096;BME280;25081;42.698;23.298;2023-03-13T08:07:14;95763.36;;;14.11;30.05
6096;BME280;25081;42.698;23.298;2023-03-13T08:09:24;95764.03;;;13.40;30.59
6096;BME280;25081;42.698;23.298;2023-03-13T08:11:35;95759.73;;;15.76;28.81
6096;BME280;25081;42.698;23.298;2023-03-13T08:13:45;95749.81;;;17.97;24.27
6096;BME280;25081;42.698;23.298;2023-03-13T08:16:06;95654.03;;;17.97;24.27
6096;BME280;25081;42.698;23.298;2023-03-13T08:18:16;95743.64;;;18.53;24.15
6096;BME280;25081;42.698;23.298;2023-03-13T08:20:27;95742.31;;;18.88;24.02
6096;BME280;25081;42.698;23.298;2023-03-13T08:22:37;95748.85;;;18.92;23.20
6096;BME280;25081;42.698;23.298;2023-03-13T08:24:48;95751.20;;;19.60;23.44
6096;BME280;25081;42.698;23.298;2023-03-13T08:26:59;95746.47;;;19.90;21.96
6096;BME280;25081;42.698;23.298;2023-03-13T08:29:10;95752.66;;;19.38;22.00
6096;BME280;25081;42.698;23.298;2023-03-13T08:31:21;95759.11;;;18.34;23.33
6096;BME280;25081;42.698;23.298;2023-03-13T08:33:30;95777.44;;;15.25;27.16
6096;BME280;25081;42.698;23.298;2023-03-13T08:35:41;95760.02;;;17.35;25.32
6096;BME280;25081;42.698;23.298;2023-03-13T08:37:51;95763.34;;;17.78;24.31
6096;BME280;25081;42.698;23.298;2023-03-13T08:40:02;95768.83;;;18.10;24.69
6096;BME280;25081;42.698;23.298;2023-03-13T08:42:13;95761.97;;;18.78;23.53
6096;BME280;25081;42.698;23.298;2023-03-13T08:44:23;95758.33;;;19.37;22.80
6096;BME280;25081;42.698;23.298;2023-03-13T08:46:34;95751.80;;;19.72;22.68
6096;BME280;25081;42.698;23.298;2023-03-13T08:48:47;95753.92;;;19.63;23.08
6096;BME280;25081;42.698;23.298;2023-03-13T08:51:02;95753.47;;;19.84;21.56
6096;BME280;25081;42.698;23.298;2023-03-13T08:53:12;95754.86;;;19.41;21.83
6096;BME280;25081;42.698;23.298;2023-03-13T08:55:22;95748.73;;;19.56;22.46
6096;BME280;25081;42.698;23.298;2023-03-13T08:57:33;95754.18;;;18.55;23.45
6096;BME280;25081;42.698;23.298;2023-03-13T08:59:43;95751.20;;;17.59;23.89
6096;BME280;25081;42.698;23.298;2023-03-13T09:01:54;95748.44;;;16.98;24.57
6096;BME280;25081;42.698;23.298;2023-03-13T09:04:05;95754.20;;;17.04;26.04
6096;BME280;25081;42.698;23.298;2023-03-13T09:06:15;95746.27;;;18.46;24.22
6096;BME280;25081;42.698;23.298;2023-03-13T09:08:26;95748.59;;;18.64;23.20
6096;BME280;25081;42.698;23.298;2023-03-13T09:10:36;95755.66;;;17.92;23.59
6096;BME280;25081;42.698;23.298;2023-03-13T09:12:47;95754.58;;;16.94;25.47
6096;BME280;25081;42.698;23.298;2023-03-13T09:14:57;95755.72;;;18.21;24.46
6096;BME280;25081;42.698;23.298;2023-03-13T09:17:08;95745.01;;;19.23;23.06
6096;BME280;25081;42.698;23.298;2023-03-13T09:19:18;95742.92;;;17.07;24.83
6096;BME280;25081;42.698;23.298;2023-03-13T09:21:29;95751.06;;;16.76;25.37
6096;BME280;25081;42.698;23.298;2023-03-13T09:23:39;95735.14;;;17.69;24.75
6096;BME280;25081;42.698;23.298;2023-03-13T09:25:51;95738.78;;;18.55;23.56
6096;BME280;25081;42.698;23.298;2023-03-13T09:28:00;95739.59;;;18.26;23.77
6096;BME280;25081;42.698;23.298;2023-03-13T09:30:13;95741.80;;;18.91;24.11
6096;BME280;25081;42.698;23.298;2023-03-13T09:32:23;95744.95;;;16.67;25.46
6096;BME280;25081;42.698;23.298;2023-03-13T09:34:34;95750.41;;;15.43;27.14
6096;BME280;25081;42.698;23.298;2023-03-13T09:36:44;95755.52;;;14.60;28.05
6096;BME280;25081;42.698;23.298;2023-03-13T09:38:55;95748.94;;;16.16;27.50
6096;BME280;25081;42.698;23.298;2023-03-13T09:41:10;95736.80;;;17.51;25.41
6096;BME280;25081;42.698;23.298;2023-03-13T09:43:20;95735.66;;;18.39;24.81
6096;BME280;25081;42.698;23.298;2023-03-13T09:45:31;95743.86;;;19.11;23.48
6096;BME280;25081;42.698;23.298;2023-03-13T09:47:41;95734.41;;;18.52;23.98
6096;BME280;25081;42.698;23.298;2023-03-13T09:49:52;95726.56;;;18.21;24.12
6096;BME280;25081;42.698;23.298;2023-03-13T09:52:12;95723.70;;;17.59;24.38
6096;BME280;25081;42.698;23.298;2023-03-13T09:54:25;95728.02;;;16.35;25.73
6096;BME280;25081;42.698;23.298;2023-03-13T09:56:36;95724.39;;;16.75;27.33
6096;BME280;25081;42.698;23.298;2023-03-13T09:58:49;95726.31;;;17.54;26.52
6096;BME280;25081;42.698;23.298;2023-03-13T10:00:59;95725.77;;;18.52;25.80
6096;BME280;25081;42.698;23.298;2023-03-13T10:03:11;95731.25;;;18.60;24.30
6096;BME280;25081;42.698;23.298;2023-03-13T10:05:22;95724.68;;;18.21;24.60
6096;BME280;25081;42.698;23.298;2023-03-13T10:07:31;95737.08;;;14.43;28.21
6096;BME280;25081;42.698;23.298;2023-03-13T10:09:42;95737.30;;;12.38;31.56
6096;BME280;25081;42.698;23.298;2023-03-13T10:11:55;95734.94;;;11.91;32.93
6096;BME280;25081;42.698;23.298;2023-03-13T10:14:08;95730.80;;;12.77;32.34
6096;BME280;25081;42.698;23.298;2023-03-13T10:16:17;95727.80;;;10.98;34.08
6096;BME280;25081;42.698;23.298;2023-03-13T10:18:27;95726.84;;;10.59;35.67
6096;BME280;25081;42.698;23.298;2023-03-13T10:20:38;95709.86;;;11.92;33.54
6096;BME280;25081;42.698;23.298;2023-03-13T10:22:48;95701.47;;;12.29;33.08
6096;BME280;25081;42.698;23.298;2023-03-13T10:24:59;95709.41;;;12.86;32.08
6096;BME280;25081;42.698;23.298;2023-03-13T10:27:09;95695.87;;;14.47;29.95
6096;BME280;25081;42.698;23.298;2023-03-13T10:29:22;95689.66;;;16.42;28.48
6096;BME280;25081;42.698;23.298;2023-03-13T10:31:32;95671.03;;;16.72;26.85
6096;BME280;25081;42.698;23.298;2023-03-13T10:33:42;95671.03;;;16.72;26.85
6096;BME280;25081;42.698;23.298;2023-03-13T10:36:04;95668.97;;;16.98;27.02
6096;BME280;25081;42.698;23.298;2023-03-13T10:38:15;95672.37;;;17.52;25.38
6096;BME280;25081;42.698;23.298;2023-03-13T10:40:25;95672.12;;;17.09;26.04
6096;BME280;25081;42.698;23.298;2023-03-13T10:42:35;95664.50;;;14.82;28.75
6096;BME280;25081;42.698;23.298;2023-03-13T10:44:46;95656.11;;;15.16;29.36
6096;BME280;25081;42.698;23.298;2023-03-13T10:46:57;95670.13;;;14.95;30.08
6096;BME280;25081;42.698;23.298;2023-03-13T10:49:12;95662.80;;;14.91;29.43
6096;BME280;25081;42.698;23.298;2023-03-13T10:51:22;95659.61;;;15.17;29.17
6096;BME280;25081;42.698;23.298;2023-03-13T10:53:35;95653.30;;;15.52;28.78
6096;BME280;25081;42.698;23.298;2023-03-13T10:55:46;95650.53;;;15.06;28.90
6096;BME280;25081;42.698;23.298;2023-03-13T10:57:58;95648.94;;;14.38;29.72
6096;BME280;25081;42.698;23.298;2023-03-13T11:00:26;95646.84;;;14.49;29.57
6096;BME280;25081;42.698;23.298;2023-03-13T11:02:35;95647.70;;;14.64;29.73
6096;BME280;25081;42.698;23.298;2023-03-13T11:04:45;95633.40;;;15.36;29.10
6096;BME280;25081;42.698;23.298;2023-03-13T11:07:00;95632.95;;;15.67;28.66
6096;BME280;25081;42.698;23.298;2023-03-13T11:09:11;95626.39;;;15.49;29.39
6096;BME280;25081;42.698;23.298;2023-03-13T11:11:22;95629.94;;;14.86;29.32
6096;BME280;25081;42.698;23.298;2023-03-13T11:13:35;95624.84;;;14.05;30.56
6096;BME280;25081;42.698;23.298;2023-03-13T11:15:47;95621.85;;;13.92;31.14
6096;BME280;25081;42.698;23.298;2023-03-13T11:17:57;95616.02;;;14.86;30.79
6096;BME280;25081;42.698;23.298;2023-03-13T11:20:20;95614.95;;;15.42;28.49
6096;BME280;25081;42.698;23.298;2023-03-13T11:22:35;95618.20;;;15.70;28.52
6096;BME280;25081;42.698;23.298;2023-03-13T11:24:45;95616.02;;;15.41;28.77
6096;BME280;25081;42.698;23.298;2023-03-13T11:26:58;95605.84;;;15.43;28.96
6096;BME280;25081;42.698;23.298;2023-03-13T11:29:11;95607.85;;;15.22;28.54
6096;BME280;25081;42.698;23.298;2023-03-13T11:31:22;95607.89;;;15.10;28.71
6096;BME280;25081;42.698;23.298;2023-03-13T11:33:37;95598.48;;;14.84;29.48
6096;BME280;25081;42.698;23.298;2023-03-13T11:35:48;95601.39;;;14.45;29.76
6096;BME280;25081;42.698;23.298;2023-03-13T11:37:57;95590.75;;;14.03;30.51